Avery, Idaho
Current Conditions -  °F | °C
As of 9:53 AM on Thursday 29 Jan 2015 (Local Time) from KMLP Reporting Station
Clear Clear  
Wind Chill: 32°   Ceiling: Unl
Heat Index: 32°   Visibility: 10mi
Dew Point: 22°   Wind: 3mph
Humidity: 66%   Direction: NA
Pressure: 30.33"   Gusts: NA
Location:  47.25°N, 115.81°W
Report Text: KMLP 291753Z AUTO VRB03KT 10SM CLR 00/M06 A3033 RMK AO2 SLP253 T00001056 10000 21028 55002
Loading
Personal Weather Stations






























Interactive Weather Map New forecast layout! Learn more

10-Day Weather Forecast

Advertisements
Track Severe Weather on mobile